createdAt,value
2022-11-03T00:01:43.199Z,83.02
2022-11-03T00:04:12.011Z,82.93
2022-11-03T00:06:39.528Z,83.08
2022-11-03T00:09:08.373Z,83.12
2022-11-03T00:11:36.034Z,82.99
2022-11-03T00:14:02.966Z,82.85
2022-11-03T00:16:29.708Z,82.91
2022-11-03T00:18:56.415Z,82.92
2022-11-03T00:21:23.181Z,82.91
2022-11-03T00:23:49.789Z,83.04
2022-11-03T00:26:26.896Z,83.14
2022-11-03T00:28:55.502Z,83.16
2022-11-03T00:31:22.857Z,83.28
2022-11-03T00:33:49.615Z,83.22
2022-11-03T00:36:17.282Z,83.22
2022-11-03T00:38:44.191Z,83.21
2022-11-03T00:41:11.494Z,83.25
2022-11-03T00:43:38.506Z,83.38
2022-11-03T00:46:05.791Z,83.48
2022-11-03T00:48:33.785Z,83.48
2022-11-03T00:51:09.728Z,83.51
2022-11-03T00:53:46.928Z,83.51
2022-11-03T00:56:14.378Z,83.59
2022-11-03T00:58:42.369Z,83.69
2022-11-03T01:01:11.959Z,83.74
2022-11-03T01:03:39.528Z,83.81
2022-11-03T01:06:26.623Z,83.93
2022-11-03T01:08:53.383Z,84.03
2022-11-03T01:11:40.299Z,84.05
2022-11-03T01:14:07.285Z,84.17
2022-11-03T01:16:34.037Z,84.25
2022-11-03T01:19:00.769Z,84.21
2022-11-03T01:21:27.696Z,84.43
2022-11-03T01:23:54.484Z,84.55
2022-11-03T01:26:21.424Z,84.56
2022-11-03T01:28:48.310Z,84.81
2022-11-03T01:31:18.431Z,84.96
2022-11-03T01:33:48.497Z,85.01
2022-11-03T01:36:15.458Z,85.18
2022-11-03T01:38:42.433Z,85.33
2022-11-03T01:41:14.701Z,85.45
2022-11-03T01:43:41.757Z,85.56
2022-11-03T01:46:11.765Z,85.64
2022-11-03T01:48:44.677Z,85.72
2022-11-03T01:51:11.549Z,85.73
2022-11-03T01:53:38.275Z,86.01
2022-11-03T01:56:05.165Z,86.05
2022-11-03T01:58:34.030Z,86.12
2022-11-03T02:01:00.851Z,86.12
2022-11-03T02:03:28.224Z,86.12
2022-11-03T02:05:55.104Z,86.24
2022-11-03T02:09:06.369Z,86.26
2022-11-03T02:11:52.136Z,86.31
2022-11-03T02:14:18.952Z,86.43
2022-11-03T02:16:48.655Z,86.36
2022-11-03T02:19:49.251Z,86.37
2022-11-03T02:22:46.396Z,86.27
2022-11-03T02:25:36.364Z,86.38
2022-11-03T02:28:03.832Z,86.39
2022-11-03T02:30:56.505Z,86.61
2022-11-03T02:33:29.591Z,86.67
2022-11-03T02:36:04.103Z,86.73
2022-11-03T02:38:30.893Z,86.98
2022-11-03T02:40:58.503Z,87.00
2022-11-03T02:43:25.250Z,87.21
2022-11-03T02:45:51.886Z,87.21
2022-11-03T02:48:18.679Z,87.48
2022-11-03T02:50:45.321Z,87.48
2022-11-03T02:53:12.841Z,87.47
2022-11-03T02:55:56.316Z,87.65
2022-11-03T02:58:44.844Z,87.71
2022-11-03T03:01:27.485Z,87.80
2022-11-03T03:03:55.992Z,87.84
2022-11-03T03:06:29.821Z,88.02
2022-11-03T03:08:59.597Z,87.94
2022-11-03T03:11:39.161Z,87.93
2022-11-03T03:14:15.058Z,88.04
2022-11-03T03:17:03.174Z,88.12
2022-11-03T03:19:38.895Z,88.31
2022-11-03T03:22:13.972Z,88.52
2022-11-03T03:24:55.833Z,88.70
2022-11-03T03:27:24.387Z,88.90
2022-11-03T03:29:53.954Z,89.04
2022-11-03T03:32:21.286Z,89.20
2022-11-03T03:34:47.969Z,89.30
2022-11-03T03:37:14.780Z,89.53
2022-11-03T03:39:41.407Z,89.60
2022-11-03T03:42:08.517Z,89.57
2022-11-03T03:44:35.295Z,89.76
2022-11-03T03:47:04.441Z,89.94
2022-11-03T03:49:31.156Z,90.03
2022-11-03T03:51:57.816Z,90.06
2022-11-03T03:54:24.546Z,90.39
2022-11-03T03:56:58.760Z,90.40
2022-11-03T03:59:25.906Z,90.43
2022-11-03T04:01:52.779Z,90.60
2022-11-03T04:04:19.612Z,90.68
2022-11-03T04:06:46.326Z,90.73
2022-11-03T04:09:13.060Z,90.80
2022-11-03T04:11:58.476Z,91.02
2022-11-03T04:14:43.633Z,91.17
2022-11-03T04:17:38.691Z,91.22
2022-11-03T04:20:28.308Z,91.36
2022-11-03T04:22:55.033Z,91.43
2022-11-03T04:25:21.780Z,91.43
2022-11-03T04:27:48.489Z,91.68
2022-11-03T04:30:19.705Z,91.69
2022-11-03T04:32:47.517Z,91.81
2022-11-03T04:35:20.937Z,91.87
2022-11-03T04:37:57.299Z,91.78
2022-11-03T04:40:24.174Z,91.88
2022-11-03T04:42:51.143Z,91.99
2022-11-03T04:45:31.187Z,91.97
2022-11-03T04:47:59.105Z,92.10
2022-11-03T04:50:25.815Z,92.04
2022-11-03T04:52:57.615Z,92.07
2022-11-03T04:55:24.640Z,92.33
2022-11-03T04:57:55.137Z,92.47
2022-11-03T05:43:30.724Z,95.00
2022-11-03T05:45:57.938Z,95.09
2022-11-03T05:48:27.464Z,95.22
2022-11-03T05:50:59.434Z,95.52
2022-11-03T05:53:30.636Z,95.84
2022-11-03T05:56:02.896Z,95.90
2022-11-03T05:58:32.456Z,96.24
2022-11-03T06:00:59.996Z,96.22
2022-11-03T06:03:30.440Z,96.38
2022-11-03T06:05:57.892Z,96.63
2022-11-03T06:08:34.053Z,96.59
2022-11-03T06:11:00.808Z,96.74
2022-11-03T06:13:33.581Z,96.81
2022-11-03T06:16:24.458Z,96.83
2022-11-03T06:18:53.600Z,96.74
2022-11-03T06:21:22.641Z,96.94
2022-11-03T06:23:49.226Z,97.03
2022-11-03T06:26:18.302Z,97.00
2022-11-03T06:28:44.780Z,97.28
2022-11-03T06:31:23.404Z,97.17
2022-11-03T06:33:51.244Z,97.10
2022-11-03T06:36:19.881Z,97.32
2022-11-03T06:38:55.086Z,97.34
2022-11-03T06:41:29.017Z,97.49
2022-11-03T06:43:55.854Z,97.49
2022-11-03T06:46:24.724Z,97.53
2022-11-03T06:48:52.042Z,97.76
2022-11-03T06:51:27.157Z,97.62
2022-11-03T06:53:58.161Z,97.68
2022-11-03T06:56:27.845Z,97.75
2022-11-03T06:58:57.743Z,97.64
2022-11-03T07:01:26.307Z,97.81
2022-11-03T07:04:03.347Z,97.92
2022-11-03T07:06:34.892Z,98.06
2022-11-03T07:09:04.256Z,97.95
2022-11-03T07:11:35.260Z,98.09
2022-11-03T07:14:15.818Z,98.20
2022-11-03T07:16:45.609Z,98.26
2022-11-03T07:19:23.286Z,98.19
2022-11-03T07:21:57.709Z,98.40
2022-11-03T07:24:26.904Z,98.48
2022-11-03T07:26:56.649Z,98.44
2022-11-03T07:29:25.126Z,98.49
2022-11-03T07:31:52.066Z,98.63
2022-11-03T07:34:21.412Z,98.69
2022-11-03T07:36:54.375Z,98.70
2022-11-03T07:39:22.421Z,98.99
2022-11-03T07:41:49.926Z,99.07
2022-11-03T07:44:20.028Z,99.33
2022-11-03T07:46:47.052Z,99.53
2022-11-03T07:49:25.695Z,99.48
2022-11-03T07:51:52.353Z,99.89
2022-11-03T07:54:20.096Z,99.80
2022-11-03T07:56:54.231Z,99.94
2022-11-03T07:59:33.395Z,99.97
2022-11-03T08:02:00.157Z,100.00
2022-11-03T08:04:28.365Z,100.00
2022-11-03T08:06:55.052Z,100.00
2022-11-03T08:09:21.600Z,100.00
2022-11-03T08:11:48.993Z,100.00
2022-11-03T08:14:15.809Z,100.00
2022-11-03T08:16:43.094Z,100.00
2022-11-03T08:19:09.835Z,100.00
2022-11-03T08:21:40.208Z,100.00
2022-11-03T08:24:06.929Z,100.00
2022-11-03T08:26:34.117Z,100.00
2022-11-03T08:29:01.260Z,100.00
2022-11-03T08:31:29.566Z,100.00
2022-11-03T08:33:56.155Z,100.00
2022-11-03T08:36:24.192Z,100.00
2022-11-03T08:38:50.970Z,100.00
2022-11-03T08:41:18.199Z,100.00
2022-11-03T08:43:45.210Z,100.00
2022-11-03T08:46:17.604Z,100.00
2022-11-03T08:48:45.300Z,100.00
2022-11-03T08:51:13.101Z,100.00
2022-11-03T08:53:41.831Z,100.00
2022-11-03T08:56:13.074Z,99.92
2022-11-03T08:58:42.233Z,99.95
2022-11-03T09:01:08.767Z,99.65
2022-11-03T09:03:35.433Z,99.69
2022-11-03T09:06:02.874Z,99.46
2022-11-03T09:11:19.157Z,99.34
2022-11-03T09:13:45.722Z,99.33
2022-11-03T09:16:12.180Z,99.18
2022-11-03T09:18:38.656Z,99.49
2022-11-03T09:21:05.876Z,99.29
2022-11-03T09:23:32.421Z,99.53
2022-11-03T09:25:59.085Z,99.37
2022-11-03T09:28:26.000Z,99.16
2022-11-03T09:30:53.240Z,99.17
2022-11-03T09:33:19.985Z,99.17
2022-11-03T09:35:47.742Z,99.12
2022-11-03T09:38:14.217Z,99.19
2022-11-03T09:40:44.766Z,99.04
2022-11-03T09:43:11.312Z,99.02
2022-11-03T09:45:39.002Z,99.03
2022-11-03T09:48:09.828Z,99.14
2022-11-03T09:50:37.337Z,99.33
2022-11-03T09:53:04.503Z,99.27
2022-11-03T09:55:32.729Z,99.31
2022-11-03T09:58:01.173Z,99.18
2022-11-03T10:00:27.869Z,99.10
2022-11-03T10:02:54.536Z,99.25
2022-11-03T10:05:25.496Z,99.04
2022-11-03T10:07:56.967Z,98.99
2022-11-03T10:10:24.517Z,98.91
2022-11-03T10:12:52.634Z,98.91
2022-11-03T10:15:22.137Z,98.87
2022-11-03T10:17:52.269Z,98.83
2022-11-03T10:20:20.695Z,98.69
2022-11-03T10:22:51.734Z,98.72
2022-11-03T10:25:28.665Z,98.47
2022-11-03T10:28:27.700Z,97.78
2022-11-03T10:31:17.000Z,96.76
2022-11-03T10:33:54.387Z,96.25
2022-11-03T10:36:25.988Z,95.82
2022-11-03T10:38:52.739Z,95.90
2022-11-03T10:41:19.939Z,95.95
2022-11-03T10:44:11.358Z,95.80
2022-11-03T10:46:50.754Z,95.97
2022-11-03T10:49:18.804Z,96.05
2022-11-03T10:51:52.031Z,96.40
2022-11-03T10:54:21.065Z,96.56
2022-11-03T10:56:47.696Z,96.78
2022-11-03T10:59:30.934Z,96.98
2022-11-03T11:01:59.597Z,96.89
2022-11-03T11:04:26.311Z,96.62
2022-11-03T11:06:53.051Z,95.93
2022-11-03T11:09:26.775Z,95.68
2022-11-03T11:12:14.493Z,95.13
2022-11-03T11:15:00.544Z,95.07
2022-11-03T11:17:41.772Z,95.16
2022-11-03T11:20:18.203Z,94.99
2022-11-03T11:22:45.342Z,95.04
2022-11-03T11:25:11.887Z,95.36
2022-11-03T11:27:39.172Z,95.65
2022-11-03T11:30:18.399Z,95.81
2022-11-03T11:32:45.217Z,95.99
2022-11-03T11:35:15.594Z,96.35
2022-11-03T11:37:42.721Z,96.49
2022-11-03T11:40:13.251Z,96.71
2022-11-03T11:43:06.487Z,96.99
2022-11-03T11:46:11.283Z,97.15
2022-11-03T11:48:40.420Z,97.32
2022-11-03T11:51:08.645Z,97.43
2022-11-03T11:53:41.552Z,97.59
2022-11-03T11:56:09.954Z,97.85
2022-11-03T11:58:54.244Z,98.05
2022-11-03T12:01:30.192Z,98.19
2022-11-03T12:03:58.708Z,98.17
2022-11-03T12:06:36.158Z,98.45
2022-11-03T12:09:14.906Z,98.57
2022-11-03T12:11:46.077Z,98.62
2022-11-03T12:14:28.707Z,98.59
2022-11-03T12:17:18.030Z,98.63
2022-11-03T12:19:54.980Z,98.88
2022-11-03T12:22:28.416Z,99.10
2022-11-03T12:25:03.604Z,99.13
2022-11-03T12:27:30.306Z,99.25
2022-11-03T12:30:01.592Z,99.54
2022-11-03T12:32:35.855Z,99.46
2022-11-03T12:35:03.777Z,99.64
2022-11-03T12:37:31.377Z,99.50
2022-11-03T12:39:58.585Z,99.59
2022-11-03T12:42:25.634Z,99.69
2022-11-03T12:44:52.703Z,99.48
2022-11-03T12:47:19.311Z,99.45
2022-11-03T12:49:45.932Z,99.48
2022-11-03T12:52:12.546Z,99.37
2022-11-03T12:54:41.514Z,99.51
2022-11-03T12:57:08.154Z,99.70
2022-11-03T12:59:35.347Z,99.61
2022-11-03T13:02:02.483Z,99.80
2022-11-03T13:04:29.352Z,99.85
2022-11-03T13:06:56.091Z,99.82
2022-11-03T13:09:22.656Z,99.91
2022-11-03T13:12:09.172Z,99.98
2022-11-03T13:14:35.875Z,99.97
2022-11-03T13:17:03.098Z,100.00
2022-11-03T13:19:29.600Z,100.00
2022-11-03T13:21:57.632Z,100.00
2022-11-03T13:24:24.302Z,100.00
2022-11-03T13:26:51.443Z,100.00
2022-11-03T13:29:18.029Z,100.00
2022-11-03T13:31:45.708Z,100.00
2022-11-03T13:34:12.322Z,100.00
2022-11-03T13:36:39.196Z,100.00
2022-11-03T13:39:05.718Z,100.00
2022-11-03T13:41:32.727Z,100.00
2022-11-03T13:43:59.269Z,100.00
2022-11-03T13:46:25.776Z,99.93
2022-11-03T13:49:42.281Z,99.94
2022-11-03T13:51:42.132Z,99.92
2022-11-03T13:59:41.945Z,99.76
2022-11-03T14:04:56.249Z,99.44
2022-11-03T14:07:22.863Z,99.33
2022-11-03T14:09:49.342Z,99.39
2022-11-03T14:12:31.498Z,99.21
2022-11-03T14:15:03.505Z,99.04
2022-11-03T14:17:30.449Z,98.94
2022-11-03T14:20:02.511Z,98.79
2022-11-03T14:22:30.926Z,98.71
2022-11-03T14:24:57.921Z,98.63
2022-11-03T14:27:25.395Z,98.69
2022-11-03T14:29:52.576Z,98.42
2022-11-03T14:32:19.373Z,98.62
2022-11-03T14:34:46.368Z,98.52
2022-11-03T14:37:13.484Z,98.62
2022-11-03T14:39:40.073Z,98.72
2022-11-03T14:42:10.913Z,98.70
2022-11-03T14:44:38.405Z,98.71
2022-11-03T14:47:12.043Z,98.85
2022-11-03T14:49:38.701Z,98.76
2022-11-03T14:52:06.653Z,98.60
2022-11-03T14:54:33.852Z,98.47
2022-11-03T14:57:00.454Z,98.46
2022-11-03T14:59:27.420Z,98.32
2022-11-03T15:01:54.195Z,98.07
2022-11-03T15:04:21.311Z,97.96
2022-11-03T15:06:48.622Z,97.92
2022-11-03T15:09:16.762Z,97.82
2022-11-03T15:11:43.908Z,97.75
2022-11-03T15:14:12.148Z,97.49
2022-11-03T15:16:39.045Z,97.54
2022-11-03T15:19:06.113Z,97.56
2022-11-03T15:21:32.968Z,97.33
2022-11-03T15:26:46.434Z,97.30
2022-11-03T15:29:13.799Z,97.29
2022-11-03T15:31:46.253Z,97.19
2022-11-03T15:34:15.418Z,97.20
2022-11-03T15:36:41.951Z,97.17
2022-11-03T15:39:08.903Z,97.13
2022-11-03T15:41:35.469Z,97.09
2022-11-03T15:44:02.220Z,97.27
2022-11-03T15:46:28.885Z,97.23
2022-11-03T15:48:56.982Z,97.25
2022-11-03T15:51:23.586Z,97.02
2022-11-03T15:53:54.906Z,96.70
2022-11-03T15:56:23.681Z,96.51
2022-11-03T15:58:50.277Z,96.37
2022-11-03T16:01:16.824Z,96.11
2022-11-03T16:03:44.772Z,96.09
2022-11-03T16:06:11.391Z,95.87
2022-11-03T16:08:38.031Z,95.81
2022-11-03T16:11:04.757Z,95.65
2022-11-03T16:13:36.956Z,95.40
2022-11-03T16:16:05.002Z,95.51
2022-11-03T16:18:32.515Z,95.53
2022-11-03T16:20:59.008Z,95.49
2022-11-03T16:23:25.563Z,95.56
2022-11-03T16:25:52.181Z,95.30
2022-11-03T16:28:18.677Z,95.31
2022-11-03T16:30:49.794Z,95.44
2022-11-03T16:33:19.776Z,95.44
2022-11-03T16:35:46.828Z,95.34
2022-11-03T16:38:14.634Z,95.41
2022-11-03T16:40:41.846Z,95.55
2022-11-03T16:43:08.764Z,95.87
2022-11-03T16:45:38.445Z,96.09
2022-11-03T16:48:05.756Z,96.24
2022-11-03T16:50:33.141Z,96.31
2022-11-03T16:52:59.731Z,96.27
2022-11-03T16:55:26.238Z,96.52
2022-11-03T16:57:52.909Z,96.74
2022-11-03T17:00:19.632Z,96.67
2022-11-03T17:02:46.569Z,96.66
2022-11-03T17:05:13.479Z,96.93
2022-11-03T17:07:40.908Z,96.95
2022-11-03T17:10:07.829Z,97.18
2022-11-03T17:12:34.663Z,97.37
2022-11-03T17:15:01.407Z,97.49
2022-11-03T17:17:28.396Z,97.63
2022-11-03T17:19:55.171Z,97.84
2022-11-03T17:22:21.796Z,97.84
2022-11-03T17:24:48.819Z,97.87
2022-11-03T17:27:20.051Z,97.93
2022-11-03T17:29:48.997Z,98.02
2022-11-03T17:32:23.498Z,98.17
2022-11-03T17:34:51.366Z,97.99
2022-11-03T17:37:18.158Z,97.87
2022-11-03T17:39:44.930Z,97.99
2022-11-03T17:42:15.179Z,97.93
2022-11-03T17:44:43.309Z,97.99
2022-11-03T17:47:10.180Z,98.14
2022-11-03T17:49:36.742Z,98.04
2022-11-03T17:52:03.390Z,97.78
2022-11-03T17:54:30.745Z,97.94
2022-11-03T18:00:02.194Z,97.99
2022-11-03T18:02:36.261Z,98.02
2022-11-03T18:05:16.882Z,98.11
2022-11-03T18:07:47.028Z,97.99
2022-11-03T18:10:14.004Z,98.15
2022-11-03T18:13:00.604Z,98.30
2022-11-03T18:15:27.395Z,98.30
2022-11-03T18:17:54.046Z,98.35
2022-11-03T18:20:26.186Z,98.29
2022-11-03T18:22:53.486Z,98.58
2022-11-03T18:25:21.144Z,98.64
2022-11-03T18:27:48.086Z,98.71
2022-11-03T18:30:19.203Z,98.74
2022-11-03T18:32:45.952Z,98.86
2022-11-03T18:35:16.309Z,98.42
2022-11-03T18:37:45.195Z,98.25
2022-11-03T18:40:13.656Z,98.54
2022-11-03T18:42:40.732Z,98.43
2022-11-03T18:45:12.265Z,98.32
2022-11-03T18:47:39.037Z,98.13
2022-11-03T18:50:06.257Z,98.25
2022-11-03T18:52:35.000Z,98.34
2022-11-03T18:55:01.724Z,98.23
2022-11-03T18:57:28.447Z,98.42
2022-11-03T18:59:55.173Z,98.11
2022-11-03T19:02:23.224Z,98.13
2022-11-03T19:04:50.597Z,98.16
2022-11-03T19:07:23.147Z,98.18
2022-11-03T19:09:49.868Z,98.22
2022-11-03T19:12:16.635Z,98.30
2022-11-03T19:14:45.017Z,98.19
2022-11-03T19:17:22.860Z,98.17
2022-11-03T19:19:51.456Z,98.12
2022-11-03T19:22:20.140Z,98.09
2022-11-03T19:24:47.025Z,97.93
2022-11-03T19:27:25.554Z,97.80
2022-11-03T19:29:52.314Z,97.97
2022-11-03T19:32:23.119Z,97.99
2022-11-03T19:34:54.277Z,98.05
2022-11-03T19:37:21.012Z,97.87
2022-11-03T19:39:48.490Z,97.99
2022-11-03T19:42:31.098Z,98.03
2022-11-03T19:44:58.789Z,97.80
2022-11-03T19:47:32.856Z,97.73
2022-11-03T19:50:01.484Z,97.88
2022-11-03T19:52:28.803Z,97.73
2022-11-03T19:54:55.605Z,97.80
2022-11-03T19:57:22.408Z,97.77
2022-11-03T19:59:49.057Z,97.73
2022-11-03T20:02:15.950Z,97.75
2022-11-03T20:04:46.718Z,97.79
2022-11-03T20:07:14.295Z,97.67
2022-11-03T20:09:41.054Z,97.80
2022-11-03T20:12:08.262Z,97.60
2022-11-03T20:14:35.342Z,97.76
2022-11-03T20:17:16.745Z,97.61
2022-11-03T20:19:44.017Z,97.69
2022-11-03T20:22:16.322Z,97.69
2022-11-03T20:24:44.447Z,97.55
2022-11-03T20:27:11.696Z,97.75
2022-11-03T20:29:39.062Z,97.75
2022-11-03T20:32:05.836Z,97.79
2022-11-03T20:34:32.496Z,97.64
2022-11-03T20:37:04.416Z,97.71
2022-11-03T20:39:32.427Z,97.63
2022-11-03T20:42:00.419Z,97.62
2022-11-03T20:44:27.180Z,97.72
2022-11-03T20:46:53.875Z,97.58
2022-11-03T20:49:21.669Z,97.79
2022-11-03T20:51:48.394Z,97.82
2022-11-03T20:54:16.704Z,98.01
2022-11-03T20:56:43.468Z,98.07
2022-11-03T21:01:45.644Z,98.44
2022-11-03T21:04:16.301Z,98.62
2022-11-03T21:06:43.108Z,98.83
2022-11-03T21:09:13.382Z,98.96
2022-11-03T21:11:40.707Z,99.04
2022-11-03T21:14:15.467Z,99.30
2022-11-03T21:17:00.852Z,99.34
2022-11-03T21:19:41.247Z,99.45
2022-11-03T21:22:51.454Z,99.40
2022-11-03T21:25:04.179Z,99.58
2022-11-03T21:27:30.914Z,99.72
2022-11-03T21:29:59.963Z,99.66
2022-11-03T21:32:27.140Z,99.74
2022-11-03T21:34:53.828Z,99.89
2022-11-03T21:37:20.536Z,99.90
2022-11-03T21:39:47.609Z,99.94
2022-11-03T21:42:33.614Z,99.90
2022-11-03T21:45:00.421Z,99.95
2022-11-03T21:47:27.311Z,99.94
2022-11-03T21:49:54.012Z,99.97
2022-11-03T21:52:33.935Z,99.88
2022-11-03T21:55:01.454Z,99.82
2022-11-03T21:57:28.575Z,99.72
2022-11-03T21:59:59.093Z,99.58
2022-11-03T22:02:30.141Z,99.68
2022-11-03T22:04:57.370Z,99.57
2022-11-03T22:07:24.081Z,99.59
2022-11-03T22:09:50.802Z,99.63
2022-11-03T22:12:17.630Z,99.59
2022-11-03T22:15:03.069Z,99.48
2022-11-03T22:17:29.875Z,99.53
2022-11-03T22:20:15.257Z,99.27
2022-11-03T22:23:00.691Z,99.33
2022-11-03T22:25:46.009Z,99.24
2022-11-03T22:28:14.925Z,99.24
2022-11-03T22:31:00.480Z,99.31
2022-11-03T22:33:27.252Z,99.13
2022-11-03T22:36:21.199Z,99.21
2022-11-03T22:39:07.194Z,99.29
2022-11-03T22:41:53.090Z,99.30
2022-11-03T22:44:38.513Z,99.49
2022-11-03T22:47:08.173Z,99.46
2022-11-03T22:49:36.546Z,99.52
2022-11-03T22:52:04.187Z,99.67
2022-11-03T22:54:30.896Z,99.69
2022-11-03T22:56:57.526Z,99.79
2022-11-03T22:59:24.254Z,99.81
2022-11-03T23:01:51.374Z,99.74
2022-11-03T23:04:18.196Z,99.82
2022-11-03T23:06:44.861Z,99.80
2022-11-03T23:09:12.277Z,99.92
2022-11-03T23:11:39.110Z,99.82
2022-11-03T23:14:07.617Z,99.63
2022-11-03T23:16:41.889Z,99.53
2022-11-03T23:19:31.873Z,99.62
2022-11-03T23:21:58.964Z,99.59
2022-11-03T23:24:45.563Z,99.65
2022-11-03T23:27:12.708Z,99.59
2022-11-03T23:29:39.468Z,99.80
2022-11-03T23:32:06.343Z,99.74
2022-11-03T23:34:35.110Z,99.65
2022-11-03T23:37:02.588Z,99.54
2022-11-03T23:39:29.311Z,99.70
2022-11-03T23:41:55.990Z,99.61
2022-11-03T23:44:22.839Z,99.55
2022-11-03T23:47:08.545Z,99.61
2022-11-03T23:49:35.361Z,99.50
2022-11-03T23:52:02.017Z,99.60
2022-11-03T23:54:28.793Z,99.48
2022-11-03T23:57:14.319Z,99.32
2022-11-03T23:59:41.142Z,99.04
